Time;durP1;ratioP1;P1;durP2;ratioP2;P2;SDS_P1;SDS_P2;PMS_P1;PMS_P2;Temp;Humidity;BMP_temperature;BMP_pressure;BME280_temperature;BME280_humidity;BME280_pressure;Samples;Min_cycle;Max_cycle;Signal;HPM_P1;HPM_P2
2022/04/23 00:00:18;;;;;;;21.10;19.20;;;12.60;80.10;;;;;;6103377;23;20460;-83
2022/04/23 00:02:44;;;;;;;21.47;19.53;;;12.60;80.40;;;;;;6101076;23;20447;-82
2022/04/23 00:05:11;;;;;;;21.83;19.73;;;12.60;80.40;;;;;;6103008;23;20434;-81
2022/04/23 00:07:38;;;;;;;22.33;20.20;;;12.60;80.80;;;;;;6102526;23;20449;-82
2022/04/23 00:10:05;;;;;;;21.77;19.80;;;12.60;81.00;;;;;;6103223;23;20910;-82
2022/04/23 00:12:32;;;;;;;20.87;18.87;;;12.50;81.40;;;;;;6102942;23;20408;-83
2022/04/23 00:15:29;;;;;;;22.00;20.00;;;12.50;81.60;;;;;;6100439;23;20955;-80
2022/04/23 00:17:56;;;;;;;20.27;18.30;;;12.40;82.00;;;;;;6102187;23;20423;-81
2022/04/23 00:20:24;;;;;;;20.70;18.30;;;12.50;83.00;;;;;;6103332;23;20424;-81
2022/04/23 00:22:51;;;;;;;20.20;18.30;;;12.40;83.40;;;;;;6109087;23;20975;-82
2022/04/23 00:25:18;;;;;;;18.77;17.07;;;12.50;84.10;;;;;;6100257;23;20415;-83
2022/04/23 00:27:44;;;;;;;20.80;18.73;;;12.50;84.00;;;;;;6099418;23;20409;-83
2022/04/23 00:30:12;;;;;;;19.07;17.27;;;12.40;84.60;;;;;;6099183;23;20412;-84
2022/04/23 00:32:40;;;;;;;17.70;16.10;;;12.40;85.30;;;;;;6099597;23;20449;-84
2022/04/23 00:35:07;;;;;;;17.57;15.97;;;12.30;85.90;;;;;;6098995;23;21102;-84
2022/04/23 00:37:34;;;;;;;17.87;16.27;;;12.20;86.90;;;;;;6099508;23;20408;-83
2022/04/23 00:40:01;;;;;;;17.73;16.27;;;12.20;87.50;;;;;;6099324;23;20447;-84
2022/04/23 00:42:32;;;;;;;16.03;14.63;;;12.20;88.10;;;;;;6098546;23;20420;-82
2022/04/23 00:44:59;;;;;;;16.03;14.53;;;12.20;88.80;;;;;;6099582;23;20436;-85
2022/04/23 00:47:25;;;;;;;17.13;14.60;;;12.20;89.30;;;;;;6100040;23;20438;-83
2022/04/23 00:49:53;;;;;;;15.40;14.00;;;12.30;90.00;;;;;;6102736;23;20791;-83
2022/04/23 00:52:20;;;;;;;15.83;14.13;;;12.20;90.30;;;;;;6097916;23;20421;-83
2022/04/23 00:54:47;;;;;;;13.90;12.60;;;12.20;90.60;;;;;;6099321;23;20405;-84
2022/04/23 00:57:14;;;;;;;15.20;13.57;;;12.10;90.90;;;;;;6099201;23;20415;-83
2022/04/23 00:59:41;;;;;;;14.67;13.40;;;12.10;91.20;;;;;;6098301;23;20526;-84
2022/04/23 01:02:08;;;;;;;13.23;11.93;;;12.00;91.50;;;;;;6100243;23;20732;-83
2022/04/23 01:04:34;;;;;;;14.20;12.73;;;12.00;91.70;;;;;;6074087;23;20772;-83
2022/04/23 01:07:03;;;;;;;15.30;13.90;;;11.90;92.20;;;;;;6102203;23;20411;-83
2022/04/23 01:09:30;;;;;;;13.23;12.13;;;11.90;92.60;;;;;;6101809;23;20406;-83
2022/04/23 01:11:59;;;;;;;15.10;13.60;;;11.80;92.80;;;;;;6108137;23;20540;-82
2022/04/23 01:14:26;;;;;;;14.37;13.00;;;11.80;93.40;;;;;;6102640;23;20415;-83
2022/04/23 01:16:52;;;;;;;15.83;13.27;;;11.80;93.70;;;;;;6101616;23;20412;-83
2022/04/23 01:19:19;;;;;;;14.60;13.10;;;11.60;94.00;;;;;;6098918;23;20785;-84
2022/04/23 01:21:47;;;;;;;15.47;14.20;;;11.70;94.50;;;;;;6098643;23;20458;-83
2022/04/23 01:24:16;;;;;;;16.17;14.47;;;11.60;94.60;;;;;;6099196;23;20829;-82
2022/04/23 01:26:43;;;;;;;15.97;14.43;;;11.60;94.60;;;;;;6098724;23;20412;-82
2022/04/23 01:29:09;;;;;;;16.73;15.13;;;11.60;94.80;;;;;;6099096;23;20441;-81
2022/04/23 01:31:36;;;;;;;15.33;13.87;;;11.60;95.00;;;;;;6098982;23;20435;-82
2022/04/23 01:34:04;;;;;;;16.33;14.67;;;11.50;95.20;;;;;;6106695;23;20405;-82
2022/04/23 01:36:30;;;;;;;17.13;15.37;;;11.40;95.60;;;;;;6111707;23;20408;-83
2022/04/23 01:38:58;;;;;;;16.00;14.50;;;11.30;96.10;;;;;;6101572;23;20460;-83
2022/04/23 01:41:25;;;;;;;16.00;14.50;;;11.30;96.50;;;;;;6098481;23;20491;-83
2022/04/23 01:43:52;;;;;;;15.43;13.93;;;11.30;97.10;;;;;;6097997;23;20452;-83
2022/04/23 01:46:18;;;;;;;17.60;16.00;;;11.20;97.40;;;;;;6097226;23;20432;-82
2022/04/23 01:48:45;;;;;;;15.57;14.07;;;11.20;97.70;;;;;;6098348;23;20796;-81
2022/04/23 01:51:12;;;;;;;16.97;15.37;;;11.20;98.20;;;;;;6098336;23;20432;-83
2022/04/23 01:53:39;;;;;;;19.10;17.23;;;11.10;98.60;;;;;;6099432;23;20409;-82
2022/04/23 01:56:07;;;;;;;17.50;15.80;;;11.10;99.00;;;;;;6101076;23;20405;-81
2022/04/23 01:58:33;;;;;;;16.73;15.13;;;11.00;99.30;;;;;;6102857;23;20978;-80
2022/04/23 02:01:00;;;;;;;15.80;14.30;;;11.00;99.60;;;;;;6102959;23;20432;-81
2022/04/23 02:03:29;;;;;;;17.30;15.70;;;10.90;99.70;;;;;;6100064;23;20437;-81
2022/04/23 02:05:56;;;;;;;18.03;16.33;;;10.90;99.90;;;;;;6096951;23;20413;-81
2022/04/23 02:08:23;;;;;;;17.57;15.80;;;10.80;99.90;;;;;;6097287;23;20467;-80
2022/04/23 02:10:51;;;;;;;18.07;16.47;;;10.80;99.90;;;;;;6099753;23;20479;-79
2022/04/23 02:13:19;;;;;;;18.40;16.70;;;10.90;99.90;;;;;;6107404;23;20409;-82
2022/04/23 02:15:46;;;;;;;20.27;18.47;;;10.90;99.90;;;;;;6108424;23;20405;-81
2022/04/23 02:18:14;;;;;;;18.50;16.87;;;10.90;99.90;;;;;;6099603;23;20512;-82
2022/04/23 02:20:41;;;;;;;18.33;16.43;;;10.90;99.90;;;;;;6099141;23;20516;-82
2022/04/23 02:23:08;;;;;;;18.33;16.43;;;10.90;99.90;;;;;;6102850;23;20414;-82
2022/04/23 02:25:35;;;;;;;17.70;16.00;;;10.90;99.90;;;;;;6121072;23;20414;-82
2022/04/23 02:28:02;;;;;;;18.67;17.00;;;10.90;99.90;;;;;;6118832;23;20464;-83
2022/04/23 02:30:30;;;;;;;19.37;17.57;;;11.00;99.90;;;;;;6116601;23;20444;-82
2022/04/23 02:32:57;;;;;;;19.77;17.90;;;11.00;99.90;;;;;;6104593;23;20389;-83
2022/04/23 02:35:24;;;;;;;19.87;17.97;;;10.90;99.90;;;;;;6100804;23;21040;-84
2022/04/23 02:37:55;;;;;;;19.07;17.30;;;10.80;99.90;;;;;;6098627;23;20472;-82
2022/04/23 02:40:21;;;;;;;18.73;16.93;;;10.80;99.90;;;;;;6097859;23;20429;-82
2022/04/23 02:42:50;;;;;;;18.73;17.03;;;10.80;99.90;;;;;;6097953;23;20409;-81
2022/04/23 02:45:20;;;;;;;18.50;16.90;;;10.80;99.90;;;;;;6099023;23;20440;-83
2022/04/23 02:47:50;;;;;;;19.40;17.67;;;10.90;99.90;;;;;;6098239;23;20935;-81
2022/04/23 02:50:24;;;;;;;21.57;19.67;;;10.80;99.90;;;;;;6099165;23;20396;-83
2022/04/23 02:52:51;;;;;;;18.70;16.37;;;10.80;99.90;;;;;;6097959;23;20392;-83
2022/04/23 02:55:18;;;;;;;19.50;17.70;;;10.70;99.90;;;;;;6096840;23;20401;-82
2022/04/23 02:57:45;;;;;;;19.83;18.07;;;10.60;99.90;;;;;;6097449;23;20887;-83
2022/04/23 03:00:12;;;;;;;19.63;17.83;;;10.60;99.90;;;;;;6097302;23;20412;-82
2022/04/23 03:02:39;;;;;;;20.10;18.30;;;10.60;99.90;;;;;;6096935;23;20421;-82
2022/04/23 03:05:09;;;;;;;19.10;17.30;;;10.40;99.90;;;;;;6096129;23;20912;-82
2022/04/23 03:07:36;;;;;;;19.87;17.87;;;10.30;99.90;;;;;;6096121;23;20919;-84
2022/04/23 03:10:04;;;;;;;20.47;18.63;;;10.40;99.90;;;;;;6103053;23;20409;-82
2022/04/23 03:12:30;;;;;;;18.73;17.00;;;10.30;99.90;;;;;;6100209;23;20451;-83
2022/04/23 03:14:57;;;;;;;20.43;18.53;;;10.40;99.90;;;;;;6096934;23;20456;-83
2022/04/23 03:17:26;;;;;;;18.20;16.57;;;10.40;99.90;;;;;;6096502;23;20903;-82
2022/04/23 03:19:53;;;;;;;18.73;17.13;;;10.30;99.90;;;;;;6096368;23;20500;-83
2022/04/23 03:22:22;;;;;;;19.30;17.50;;;10.30;99.90;;;;;;6096012;23;20434;-83
2022/04/23 03:24:48;;;;;;;19.23;17.53;;;10.30;99.90;;;;;;6095917;23;20452;-83
2022/04/23 03:27:15;;;;;;;17.80;16.07;;;10.40;99.90;;;;;;6096854;23;20416;-83
2022/04/23 03:29:42;;;;;;;19.07;17.27;;;10.40;99.90;;;;;;6096314;23;20408;-83
2022/04/23 03:32:10;;;;;;;20.13;18.33;;;10.40;99.90;;;;;;6095442;23;20438;-83
2022/04/23 03:34:36;;;;;;;17.50;15.90;;;10.50;99.90;;;;;;6097949;23;20461;-84
2022/04/23 03:37:04;;;;;;;18.83;17.20;;;10.60;99.90;;;;;;6099122;23;20440;-82
2022/04/23 03:39:32;;;;;;;18.10;16.30;;;10.60;99.90;;;;;;6096374;23;20914;-84
2022/04/23 03:42:02;;;;;;;18.57;16.87;;;10.60;99.90;;;;;;6103633;23;20425;-82
2022/04/23 03:44:30;;;;;;;17.87;16.17;;;10.50;99.90;;;;;;6115464;23;20429;-81
2022/04/23 03:46:57;;;;;;;17.33;15.83;;;10.50;99.90;;;;;;6115999;23;20413;-82
2022/04/23 03:49:24;;;;;;;17.13;15.53;;;10.60;99.90;;;;;;6110011;23;20968;-82
2022/04/23 03:51:51;;;;;;;15.20;13.90;;;10.50;99.90;;;;;;6110920;23;20425;-82
2022/04/23 03:54:18;;;;;;;16.20;14.80;;;10.40;99.90;;;;;;6111792;23;20402;-83
2022/04/23 03:56:46;;;;;;;17.10;14.90;;;10.40;99.90;;;;;;6101870;23;20452;-82
2022/04/23 03:59:14;;;;;;;15.47;13.97;;;10.40;99.90;;;;;;6098548;23;20408;-82
2022/04/23 04:01:41;;;;;;;14.27;12.90;;;10.30;99.90;;;;;;6100285;23;20432;-81
2022/04/23 04:04:08;;;;;;;14.60;13.40;;;10.30;99.90;;;;;;6109834;23;20404;-82
2022/04/23 04:06:34;;;;;;;13.70;12.43;;;10.20;99.90;;;;;;6098672;23;20416;-82
2022/04/23 04:09:01;;;;;;;14.33;13.07;;;10.20;99.90;;;;;;6098748;23;20526;-83
2022/04/23 04:12:00;;;;;;;16.00;14.50;;;10.10;99.90;;;;;;6098048;23;20939;-83
2022/04/23 04:14:16;;;;;;;15.03;13.53;;;10.10;99.90;;;;;;6097664;23;20759;-83
2022/04/23 04:16:42;;;;;;;15.70;14.30;;;9.80;99.90;;;;;;6098182;23;20914;-83
2022/04/23 04:19:09;;;;;;;14.47;13.13;;;9.70;99.90;;;;;;6102597;23;20440;-82
2022/04/23 04:21:36;;;;;;;14.90;13.50;;;9.70;99.90;;;;;;6108492;23;20443;-83
2022/04/23 04:24:02;;;;;;;16.30;14.70;;;9.70;99.90;;;;;;6098223;23;20405;-83
2022/04/23 04:26:29;;;;;;;16.90;15.23;;;9.70;99.90;;;;;;6106284;23;20408;-82
2022/04/23 04:28:56;;;;;;;16.70;15.10;;;9.70;99.90;;;;;;6110535;23;20455;-81
2022/04/23 04:34:09;;;;;;;16.87;15.27;;;9.60;99.90;;;;;;6099486;23;20487;-83
2022/04/23 04:36:35;;;;;;;16.07;14.57;;;9.60;99.90;;;;;;6100583;23;20408;-84
2022/04/23 04:39:02;;;;;;;16.57;14.87;;;9.60;99.90;;;;;;6099620;23;20400;-83
2022/04/23 04:41:31;;;;;;;15.83;14.30;;;9.60;99.90;;;;;;6100485;23;20435;-81
2022/04/23 04:43:58;;;;;;;16.63;15.00;;;9.60;99.90;;;;;;6099092;23;20460;-84
2022/04/23 04:46:26;;;;;;;16.90;15.30;;;9.60;99.90;;;;;;6100540;23;20491;-82
2022/04/23 04:48:52;;;;;;;17.43;15.83;;;9.60;99.90;;;;;;6105711;23;20480;-83
2022/04/23 04:51:19;;;;;;;16.77;15.07;;;9.80;99.90;;;;;;6099965;23;20425;-83
2022/04/23 04:53:46;;;;;;;15.87;14.27;;;9.90;99.90;;;;;;6099260;23;20416;-83
2022/04/23 04:56:13;;;;;;;16.77;14.97;;;10.00;99.90;;;;;;6098724;23;20405;-84
2022/04/23 04:58:43;;;;;;;17.07;15.40;;;10.10;99.90;;;;;;6098239;23;20416;-83
2022/04/23 05:01:10;;;;;;;15.17;13.67;;;10.10;99.90;;;;;;6098048;23;20433;-83
2022/04/23 05:03:40;;;;;;;16.07;14.67;;;10.20;99.90;;;;;;6097926;23;20411;-84
2022/04/23 05:06:06;;;;;;;17.13;15.37;;;10.30;99.90;;;;;;6097549;23;20440;-83
2022/04/23 05:08:34;;;;;;;14.73;13.33;;;10.40;99.90;;;;;;6097163;23;20971;-84
2022/04/23 05:11:00;;;;;;;17.87;16.03;;;10.50;99.90;;;;;;6098416;23;20779;-83
2022/04/23 05:13:27;;;;;;;15.47;13.97;;;10.40;99.90;;;;;;6114968;23;20403;-82
2022/04/23 05:15:54;;;;;;;15.50;14.10;;;10.50;99.90;;;;;;6114929;23;20480;-83
2022/04/23 05:18:20;;;;;;;16.10;14.70;;;10.60;99.90;;;;;;6098492;23;20412;-84
2022/04/23 05:20:48;;;;;;;16.03;14.53;;;10.60;99.90;;;;;;6097967;23;20475;-83
2022/04/23 05:23:16;;;;;;;17.10;15.50;;;10.60;99.90;;;;;;6098275;23;20794;-84
2022/04/23 05:25:42;;;;;;;15.50;14.00;;;10.60;99.90;;;;;;6096878;23;20408;-80
2022/04/23 05:28:09;;;;;;;16.40;14.80;;;10.70;99.90;;;;;;6097567;23;20385;-85
2022/04/23 05:30:38;;;;;;;17.10;15.53;;;10.70;99.90;;;;;;6096907;23;20448;-82
2022/04/23 05:33:05;;;;;;;17.13;15.43;;;10.70;99.90;;;;;;6097454;23;20432;-81
2022/04/23 05:35:31;;;;;;;17.07;15.33;;;10.90;99.90;;;;;;6098490;23;20441;-82
2022/04/23 05:38:00;;;;;;;15.50;13.90;;;10.90;99.90;;;;;;6099732;23;20404;-84
2022/04/23 05:40:26;;;;;;;17.07;15.37;;;10.90;99.90;;;;;;6101289;23;20433;-82
2022/04/23 05:42:55;;;;;;;16.03;14.43;;;10.90;99.90;;;;;;6106048;23;20464;-81
2022/04/23 05:45:23;;;;;;;16.80;15.10;;;10.90;99.90;;;;;;6098775;23;20413;-82
2022/04/23 05:47:49;;;;;;;16.73;15.13;;;10.90;99.90;;;;;;6102437;23;20409;-80
2022/04/23 05:50:17;;;;;;;15.93;14.47;;;10.90;99.90;;;;;;6106059;23;20441;-83
2022/04/23 05:52:44;;;;;;;17.00;15.30;;;10.90;99.90;;;;;;6099089;23;20435;-83
2022/04/23 05:55:12;;;;;;;15.90;14.40;;;10.90;99.90;;;;;;6098193;23;20445;-82
2022/04/23 05:57:39;;;;;;;18.80;14.20;;;11.10;99.90;;;;;;6097538;23;21007;-81
2022/04/23 06:00:09;;;;;;;15.40;13.87;;;11.20;99.90;;;;;;6101010;23;20437;-81
2022/04/23 06:02:36;;;;;;;14.33;13.13;;;11.30;99.90;;;;;;6104209;23;20412;-79
2022/04/23 06:05:03;;;;;;;17.07;15.47;;;11.40;99.90;;;;;;6103537;23;20436;-83
2022/04/23 06:07:30;;;;;;;16.27;14.83;;;11.50;99.90;;;;;;6104473;23;20409;-82
2022/04/23 06:09:56;;;;;;;15.23;13.83;;;11.60;99.90;;;;;;6101815;23;20412;-82
2022/04/23 06:12:24;;;;;;;15.10;13.60;;;11.50;99.90;;;;;;6099535;23;20441;-82
2022/04/23 06:14:51;;;;;;;14.87;13.47;;;11.70;99.90;;;;;;6103081;23;20555;-83
2022/04/23 06:17:24;;;;;;;14.10;12.90;;;11.60;99.50;;;;;;6100949;23;20926;-81
2022/04/23 06:19:51;;;;;;;14.07;12.40;;;11.60;99.80;;;;;;6102519;23;20385;-80
2022/04/23 06:22:18;;;;;;;14.93;13.53;;;11.70;99.60;;;;;;6101405;23;21008;-82
2022/04/23 06:24:44;;;;;;;14.33;12.93;;;11.70;99.10;;;;;;6112227;23;20407;-83
2022/04/23 06:27:11;;;;;;;15.27;13.83;;;11.70;99.40;;;;;;6119224;23;20543;-82
2022/04/23 06:29:40;;;;;;;12.90;11.70;;;11.70;99.30;;;;;;6118759;23;20393;-84
2022/04/23 06:32:07;;;;;;;14.53;13.23;;;11.70;99.20;;;;;;6107812;23;20444;-82
2022/04/23 06:34:35;;;;;;;13.50;12.30;;;11.70;99.30;;;;;;6098562;23;20480;-80
2022/04/23 06:37:02;;;;;;;13.03;11.83;;;11.60;99.10;;;;;;6100107;23;20451;-82
2022/04/23 06:39:28;;;;;;;12.07;10.87;;;11.50;99.10;;;;;;6099201;23;20393;-80
2022/04/23 06:41:55;;;;;;;11.50;10.50;;;11.50;99.20;;;;;;6098316;23;20436;-79
2022/04/23 06:44:22;;;;;;;13.87;12.57;;;11.60;98.80;;;;;;6100339;23;20409;-79
2022/04/23 06:46:50;;;;;;;12.40;11.20;;;11.80;98.70;;;;;;6100182;23;20793;-78
2022/04/23 06:49:16;;;;;;;12.23;11.03;;;12.00;98.40;;;;;;6109715;23;20898;-83
2022/04/23 06:51:43;;;;;;;10.53;9.63;;;12.10;97.80;;;;;;6107872;23;20435;-81
2022/04/23 06:54:10;;;;;;;10.93;9.97;;;12.40;97.10;;;;;;6106600;23;20409;-79
2022/04/23 06:56:38;;;;;;;10.13;9.23;;;12.50;96.40;;;;;;6102393;23;20510;-80
2022/04/23 06:59:05;;;;;;;10.53;9.63;;;12.30;96.00;;;;;;6100400;23;20417;-81
2022/04/23 07:01:32;;;;;;;10.70;9.80;;;12.20;96.30;;;;;;6098165;23;20435;-81
2022/04/23 07:04:00;;;;;;;11.23;10.23;;;12.40;96.20;;;;;;6099211;23;20413;-79
2022/04/23 07:06:27;;;;;;;9.40;8.60;;;12.50;95.90;;;;;;6097900;23;20408;-80
2022/04/23 07:08:54;;;;;;;10.73;9.73;;;12.50;95.70;;;;;;6114394;23;20392;-82
2022/04/23 07:11:21;;;;;;;10.53;9.63;;;12.40;95.70;;;;;;6109373;23;20432;-82
2022/04/23 07:13:48;;;;;;;11.80;10.80;;;12.40;95.90;;;;;;6096414;23;20926;-80
2022/04/23 07:16:16;;;;;;;11.47;10.47;;;12.40;96.00;;;;;;6095549;23;20442;-82
2022/04/23 07:18:44;;;;;;;11.03;10.03;;;12.50;95.80;;;;;;6095659;23;20457;-75
2022/04/23 07:21:12;;;;;;;11.10;10.10;;;12.40;96.10;;;;;;6096824;23;20426;-83
2022/04/23 07:26:23;;;;;;;10.37;9.43;;;12.80;94.90;;;;;;6100667;23;20396;-81
2022/04/23 07:28:50;;;;;;;9.00;8.20;;;13.10;94.30;;;;;;6101949;23;20990;-82
2022/04/23 07:31:17;;;;;;;9.80;8.90;;;13.10;93.50;;;;;;6110300;23;20437;-81
2022/04/23 07:39:13;;;;;;;10.07;9.17;;;13.60;92.30;;;;;;6102191;23;20464;-84
2022/04/23 07:41:40;;;;;;;9.27;8.37;;;13.80;91.50;;;;;;6101694;23;20439;-82
2022/04/23 07:44:07;;;;;;;8.83;8.00;;;13.80;91.40;;;;;;6101760;23;20533;-83
2022/04/23 07:46:34;;;;;;;8.67;7.87;;;14.00;91.00;;;;;;6101141;23;20749;-84
2022/04/23 07:49:00;;;;;;;12.83;8.73;;;14.10;90.40;;;;;;6106322;23;20841;-81
2022/04/23 07:51:28;;;;;;;9.50;8.60;;;14.30;90.30;;;;;;6107638;23;20944;-83
2022/04/23 07:53:55;;;;;;;9.57;8.67;;;14.50;89.80;;;;;;6104569;23;20409;-84
2022/04/23 07:56:22;;;;;;;8.30;7.50;;;14.80;87.50;;;;;;6101366;23;20475;-83
2022/04/23 07:58:49;;;;;;;9.10;8.20;;;14.70;87.50;;;;;;6102295;23;20414;-82
2022/04/23 08:01:16;;;;;;;9.80;8.73;;;14.70;86.20;;;;;;6100455;23;20434;-83
2022/04/23 08:03:42;;;;;;;9.03;8.23;;;14.80;87.10;;;;;;6102382;23;20434;-83
2022/04/23 08:06:10;;;;;;;8.40;7.70;;;14.80;85.50;;;;;;6107192;23;20786;-80
2022/04/23 08:08:38;;;;;;;8.93;8.03;;;15.00;85.80;;;;;;6103414;23;20502;-80
2022/04/23 08:11:04;;;;;;;10.13;9.23;;;15.50;85.20;;;;;;6099768;23;20435;-79
2022/04/23 08:13:32;;;;;;;9.83;8.93;;;15.90;82.60;;;;;;6098707;23;20408;-78
2022/04/23 08:15:59;;;;;;;8.53;7.63;;;15.80;81.00;;;;;;6098700;23;20448;-77
2022/04/23 08:18:27;;;;;;;8.50;7.70;;;15.50;82.20;;;;;;6098296;23;20408;-79
2022/04/23 08:20:54;;;;;;;9.23;8.43;;;15.40;82.10;;;;;;6098070;23;20436;-78
2022/04/23 08:23:20;;;;;;;8.17;7.37;;;15.40;82.80;;;;;;6097446;23;20463;-77
2022/04/23 08:25:48;;;;;;;9.27;8.40;;;15.60;81.40;;;;;;6097413;23;20419;-79
2022/04/23 08:31:00;;;;;;;9.80;8.90;;;15.30;82.00;;;;;;6097347;23;20959;-78
2022/04/23 08:33:57;;;;;;;8.70;8.00;;;15.20;81.90;;;;;;6097831;23;21089;-78
2022/04/23 08:36:15;;;;;;;8.73;7.93;;;15.10;81.60;;;;;;6097663;23;20436;-78
2022/04/23 08:38:41;;;;;;;8.70;7.90;;;15.30;82.40;;;;;;6096948;23;20428;-79
2022/04/23 08:41:11;;;;;;;9.13;8.23;;;15.20;81.80;;;;;;6097020;23;20424;-77
2022/04/23 08:43:37;;;;;;;9.13;8.30;;;14.80;83.10;;;;;;6097712;23;20416;-78
2022/04/23 08:46:04;;;;;;;9.70;8.90;;;15.20;82.70;;;;;;6097106;23;20462;-79
2022/04/23 08:48:37;;;;;;;9.53;8.63;;;15.60;81.30;;;;;;6096932;23;20420;-79
2022/04/23 08:51:07;;;;;;;9.87;8.87;;;15.80;79.70;;;;;;6098302;23;20459;-78
2022/04/23 08:53:40;;;;;;;10.50;9.50;;;15.60;78.90;;;;;;6112886;23;20397;-80
2022/04/23 08:56:09;;;;;;;10.20;9.23;;;15.80;78.50;;;;;;6102018;23;20436;-80
2022/04/23 08:58:39;;;;;;;10.67;9.60;;;15.80;79.30;;;;;;6100287;23;20403;-78
2022/04/23 09:01:06;;;;;;;10.27;9.37;;;15.40;80.00;;;;;;6101527;23;20428;-80
2022/04/23 09:03:32;;;;;;;9.83;8.87;;;15.40;80.30;;;;;;6097285;23;20434;-79
2022/04/23 09:05:59;;;;;;;11.60;10.50;;;15.40;80.70;;;;;;6103489;23;20464;-79
2022/04/23 09:08:29;;;;;;;10.10;8.87;;;15.30;80.70;;;;;;6100273;23;20419;-78
2022/04/23 09:10:56;;;;;;;10.20;9.20;;;15.00;82.00;;;;;;6100754;23;20470;-79
2022/04/23 09:13:28;;;;;;;11.13;9.83;;;14.80;82.30;;;;;;6099027;23;20405;-79
2022/04/23 09:24:20;;;;;;;9.40;8.30;;;14.90;82.30;;;;;;6113225;23;20389;-81
2022/04/23 09:27:03;;;;;;;10.30;8.97;;;14.80;82.20;;;;;;6101372;23;20412;-80
2022/04/23 09:29:31;;;;;;;10.50;8.83;;;14.80;82.80;;;;;;6098107;23;20393;-79
2022/04/23 09:32:10;;;;;;;9.30;8.40;;;14.70;83.60;;;;;;6095555;23;20444;-79
2022/04/23 09:34:37;;;;;;;9.40;8.50;;;14.80;82.90;;;;;;6096476;23;20492;-81
2022/04/23 09:37:04;;;;;;;8.47;7.67;;;14.70;82.90;;;;;;6095875;23;20450;-80
2022/04/23 09:39:34;;;;;;;8.80;8.10;;;14.90;82.50;;;;;;6095547;23;20443;-81
2022/04/23 09:42:14;;;;;;;8.17;7.37;;;15.00;81.80;;;;;;6100508;23;20425;-81
2022/04/23 09:44:43;;;;;;;9.00;8.10;;;14.90;82.00;;;;;;6098964;23;20995;-80
2022/04/23 09:47:10;;;;;;;8.50;7.60;;;14.60;82.20;;;;;;6096594;23;20407;-80
2022/04/23 09:49:38;;;;;;;7.93;7.23;;;14.30;83.80;;;;;;6096022;23;20968;-80
2022/04/23 09:52:07;;;;;;;8.77;7.97;;;14.30;84.30;;;;;;6096084;23;20609;-79
2022/04/23 09:54:34;;;;;;;8.43;7.20;;;14.20;84.20;;;;;;6098937;23;20430;-83
2022/04/23 09:57:02;;;;;;;8.47;7.57;;;14.20;84.60;;;;;;6076199;23;20443;-81
2022/04/23 09:59:29;;;;;;;8.50;7.60;;;14.40;84.40;;;;;;6102216;23;20725;-84
2022/04/23 10:01:58;;;;;;;7.90;7.20;;;14.60;83.60;;;;;;6105232;23;20431;-82
2022/04/23 10:04:29;;;;;;;7.20;6.50;;;14.50;83.20;;;;;;6100942;23;20919;-82
2022/04/23 10:06:56;;;;;;;7.40;6.80;;;14.70;83.90;;;;;;6099358;23;20426;-81
2022/04/23 10:09:28;;;;;;;7.40;6.80;;;15.00;83.30;;;;;;6105553;23;20416;-81
2022/04/23 10:12:02;;;;;;;7.30;6.60;;;15.10;82.00;;;;;;6102993;23;20469;-82
2022/04/23 10:14:38;;;;;;;7.27;6.57;;;15.50;80.90;;;;;;6107430;23;20393;-82
2022/04/23 10:17:10;;;;;;;7.63;6.83;;;15.60;79.30;;;;;;6108708;23;20439;-82
2022/04/23 10:19:37;;;;;;;7.70;7.00;;;15.40;79.90;;;;;;6103119;23;20393;-81
2022/04/23 10:22:19;;;;;;;7.30;6.70;;;15.40;79.70;;;;;;6102417;23;20522;-84
2022/04/23 10:25:01;;;;;;;8.07;6.70;;;15.40;80.20;;;;;;6105912;23;20383;-79
2022/04/23 10:27:28;;;;;;;6.47;5.93;;;15.70;79.10;;;;;;6118147;23;20381;-84
2022/04/23 10:29:56;;;;;;;7.20;6.07;;;15.70;78.70;;;;;;6119458;23;20440;-82
2022/04/23 10:32:25;;;;;;;7.00;6.40;;;15.90;78.70;;;;;;6118305;23;20440;-81
2022/04/23 10:34:53;;;;;;;6.83;6.23;;;16.30;77.80;;;;;;6107687;23;20439;-80
2022/04/23 10:37:22;;;;;;;6.93;6.37;;;16.30;76.40;;;;;;6110774;23;20440;-84
2022/04/23 10:40:14;;;;;;;6.90;6.30;;;16.20;75.90;;;;;;6106273;23;20420;-83
2022/04/23 10:43:19;;;;;;;8.83;6.60;;;16.10;76.30;;;;;;6094283;23;20452;-83
2022/04/23 10:45:48;;;;;;;8.00;7.20;;;16.30;76.70;;;;;;6108637;23;20401;-79
2022/04/23 10:48:47;;;;;;;8.20;7.50;;;16.60;75.40;;;;;;6111795;23;20409;-80
2022/04/23 10:51:18;;;;;;;7.90;7.20;;;17.10;73.60;;;;;;6108177;23;20416;-80
2022/04/23 10:53:57;;;;;;;8.63;7.83;;;17.20;73.50;;;;;;6107648;23;20464;-80
2022/04/23 10:56:26;;;;;;;7.77;7.07;;;17.00;72.80;;;;;;6102117;23;20451;-79
2022/04/23 10:58:57;;;;;;;8.53;7.70;;;16.80;73.40;;;;;;6101210;23;20423;-80
2022/04/23 11:01:25;;;;;;;8.60;7.80;;;16.80;73.60;;;;;;6105871;23;20428;-81
2022/04/23 11:04:12;;;;;;;8.67;7.87;;;17.10;73.90;;;;;;6107969;23;20406;-81
2022/04/23 11:12:40;;;;;;;7.83;7.13;;;16.20;75.70;;;;;;5998122;23;20392;-82
2022/04/23 11:15:19;;;;;;;8.63;7.80;;;16.50;75.20;;;;;;6104503;23;20393;-81
2022/04/23 11:17:48;;;;;;;10.63;9.27;;;16.00;75.70;;;;;;6102266;23;20479;-81
2022/04/23 11:20:26;;;;;;;9.50;8.57;;;15.70;76.70;;;;;;6104266;23;20409;-81
2022/04/23 11:22:57;;;;;;;9.67;8.40;;;15.60;77.60;;;;;;6106258;23;20393;-82
2022/04/23 11:25:30;;;;;;;9.90;8.90;;;15.90;77.30;;;;;;6106021;23;20408;-83
2022/04/23 11:28:01;;;;;;;10.70;8.93;;;15.90;76.30;;;;;;6107032;23;20415;-83
2022/04/23 11:30:32;;;;;;;10.53;8.50;;;15.70;77.00;;;;;;6110655;23;20479;-81
2022/04/23 11:33:18;;;;;;;11.30;10.20;;;15.70;77.60;;;;;;6109539;23;20903;-81
2022/04/23 11:35:44;;;;;;;9.10;8.23;;;15.90;77.60;;;;;;6104246;23;20423;-82
2022/04/23 11:38:23;;;;;;;12.27;9.30;;;16.10;77.00;;;;;;6115025;23;20420;-81
2022/04/23 11:40:53;;;;;;;10.67;9.57;;;16.00;77.00;;;;;;6104512;23;20535;-83
2022/04/23 11:43:32;;;;;;;10.43;9.43;;;15.70;77.80;;;;;;6101461;23;20491;-82
2022/04/23 11:46:13;;;;;;;10.00;8.67;;;15.90;78.20;;;;;;6101466;23;20404;-83
2022/04/23 11:48:41;;;;;;;9.63;8.73;;;16.40;77.30;;;;;;6101673;23;20396;-85
2022/04/23 11:51:12;;;;;;;10.53;9.57;;;16.50;75.70;;;;;;6101617;23;20452;-82
2022/04/23 11:54:00;;;;;;;9.80;8.70;;;16.10;75.90;;;;;;6101528;23;20799;-82
2022/04/23 11:56:29;;;;;;;8.83;7.93;;;16.00;77.00;;;;;;6102964;23;20787;-78
2022/04/23 11:58:57;;;;;;;10.43;9.53;;;16.20;77.10;;;;;;6104318;23;20471;-80
2022/04/23 12:01:27;;;;;;;10.00;9.00;;;16.60;75.80;;;;;;6104403;23;20537;-79
2022/04/23 12:03:55;;;;;;;10.20;9.37;;;16.90;74.80;;;;;;6106243;23;20409;-82
2022/04/23 12:06:23;;;;;;;9.00;8.17;;;16.70;74.80;;;;;;6098319;23;21025;-79
2022/04/23 12:08:50;;;;;;;8.63;7.77;;;16.70;75.30;;;;;;6100047;23;20409;-78
2022/04/23 12:11:24;;;;;;;9.27;8.57;;;17.00;74.40;;;;;;6099382;23;20432;-78
2022/04/23 12:13:51;;;;;;;11.23;8.40;;;17.20;73.60;;;;;;6098558;23;20757;-79
2022/04/23 12:16:37;;;;;;;9.87;8.90;;;17.60;72.60;;;;;;6098176;23;20785;-80
2022/04/23 12:19:06;;;;;;;9.00;8.20;;;18.00;71.50;;;;;;6099206;23;20401;-80
2022/04/23 12:21:33;;;;;;;10.10;9.20;;;18.30;70.00;;;;;;6101030;23;20433;-80
2022/04/23 12:24:01;;;;;;;8.77;7.97;;;18.20;69.10;;;;;;6102182;23;20495;-81
2022/04/23 12:26:32;;;;;;;9.57;8.70;;;17.90;69.80;;;;;;6100700;23;20957;-83
2022/04/23 12:43:36;;;;;;;8.80;8.00;;;17.70;70.90;;;;;;6105874;23;20459;-82
2022/04/23 12:46:08;;;;;;;8.90;8.00;;;18.00;71.10;;;;;;6094141;23;20420;-82
2022/04/23 12:49:03;;;;;;;9.03;8.20;;;17.90;69.80;;;;;;6107281;23;20512;-81
2022/04/23 12:51:30;;;;;;;10.17;9.17;;;17.70;70.00;;;;;;6111235;23;20751;-81
2022/04/23 12:53:57;;;;;;;9.57;8.57;;;17.40;70.70;;;;;;6106949;23;20408;-82
2022/04/23 12:56:34;;;;;;;9.73;8.73;;;17.20;71.70;;;;;;6103975;23;20448;-80
2022/04/23 12:59:03;;;;;;;9.57;8.83;;;16.80;73.00;;;;;;6105790;23;20412;-82
2022/04/23 13:01:30;;;;;;;9.57;8.67;;;16.80;73.90;;;;;;6110888;23;20425;-82
2022/04/23 13:03:57;;;;;;;10.57;9.67;;;17.00;73.70;;;;;;6109760;23;20421;-81
2022/04/23 13:09:09;;;;;;;10.00;9.00;;;17.00;73.50;;;;;;6107659;23;20380;-84
2022/04/23 13:11:36;;;;;;;10.63;9.73;;;16.90;73.80;;;;;;6107794;23;20437;-81
2022/04/23 13:14:05;;;;;;;9.47;8.47;;;16.60;73.60;;;;;;6104231;23;20414;-82
2022/04/23 13:16:33;;;;;;;9.20;8.40;;;16.50;74.80;;;;;;6107996;23;20448;-80
2022/04/23 13:19:01;;;;;;;8.70;8.00;;;16.70;74.70;;;;;;6105402;23;20396;-78
2022/04/23 13:21:30;;;;;;;9.60;8.60;;;16.80;73.80;;;;;;6098487;23;20429;-80
2022/04/23 13:23:57;;;;;;;9.53;8.80;;;17.00;73.70;;;;;;6103027;23;20412;-79
2022/04/23 13:26:26;;;;;;;11.67;9.93;;;16.90;73.70;;;;;;6098169;23;20416;-78
2022/04/23 13:28:52;;;;;;;10.50;9.57;;;16.80;73.70;;;;;;6097947;23;20424;-80